sensor_id;sensor_type;location;lat;lon;timestamp;pressure;altitude;pressure_sealevel;temperature;humidity
3434;BME280;1730;41.932;25.548;2022-08-21T00:01:20;98495.72;;;24.06;100.00
3434;BME280;1730;41.932;25.548;2022-08-21T00:03:47;98488.78;;;23.98;100.00
3434;BME280;1730;41.932;25.548;2022-08-21T00:06:13;98464.50;;;23.95;100.00
3434;BME280;1730;41.932;25.548;2022-08-21T00:08:39;98486.69;;;24.10;100.00
3434;BME280;1730;41.932;25.548;2022-08-21T00:11:05;98487.06;;;24.19;100.00
3434;BME280;1730;41.932;25.548;2022-08-21T00:13:32;98493.50;;;24.03;100.00
3434;BME280;1730;41.932;25.548;2022-08-21T00:15:58;98491.72;;;23.92;100.00
3434;BME280;1730;41.932;25.548;2022-08-21T00:18:24;98460.03;;;23.89;100.00
3434;BME280;1730;41.932;25.548;2022-08-21T00:20:50;98483.56;;;24.02;100.00
3434;BME280;1730;41.932;25.548;2022-08-21T00:23:16;98359.84;;;23.10;100.00
3434;BME280;1730;41.932;25.548;2022-08-21T00:25:44;98436.94;;;23.63;100.00
3434;BME280;1730;41.932;25.548;2022-08-21T00:28:10;98417.00;;;23.78;100.00
3434;BME280;1730;41.932;25.548;2022-08-21T00:30:37;98475.25;;;24.23;100.00
3434;BME280;1730;41.932;25.548;2022-08-21T00:33:04;98474.94;;;24.20;100.00
3434;BME280;1730;41.932;25.548;2022-08-21T00:35:34;98490.41;;;24.21;100.00
3434;BME280;1730;41.932;25.548;2022-08-21T00:38:01;98480.72;;;24.18;100.00
3434;BME280;1730;41.932;25.548;2022-08-21T00:40:31;98485.66;;;24.48;100.00
3434;BME280;1730;41.932;25.548;2022-08-21T00:42:58;98473.47;;;24.39;100.00
3434;BME280;1730;41.932;25.548;2022-08-21T00:45:24;98475.75;;;24.15;100.00
3434;BME280;1730;41.932;25.548;2022-08-21T00:47:51;98436.44;;;23.98;100.00
3434;BME280;1730;41.932;25.548;2022-08-21T00:50:18;98145.56;;;22.23;100.00
3434;BME280;1730;41.932;25.548;2022-08-21T00:52:45;98470.66;;;24.34;100.00
3434;BME280;1730;41.932;25.548;2022-08-21T00:55:11;98380.91;;;23.26;100.00
3434;BME280;1730;41.932;25.548;2022-08-21T00:57:45;98479.31;;;23.62;100.00
3434;BME280;1730;41.932;25.548;2022-08-21T01:00:17;98484.94;;;23.72;100.00
3434;BME280;1730;41.932;25.548;2022-08-21T01:02:43;98470.69;;;23.80;100.00
3434;BME280;1730;41.932;25.548;2022-08-21T01:05:09;98466.12;;;23.91;100.00
3434;BME280;1730;41.932;25.548;2022-08-21T01:07:36;98464.47;;;23.90;100.00
3434;BME280;1730;41.932;25.548;2022-08-21T01:10:03;98468.47;;;23.77;100.00
3434;BME280;1730;41.932;25.548;2022-08-21T01:12:28;98465.25;;;23.86;100.00
3434;BME280;1730;41.932;25.548;2022-08-21T01:14:54;98396.00;;;23.72;100.00
3434;BME280;1730;41.932;25.548;2022-08-21T01:17:20;98444.47;;;24.05;100.00
3434;BME280;1730;41.932;25.548;2022-08-21T01:19:46;98435.75;;;24.13;100.00
3434;BME280;1730;41.932;25.548;2022-08-21T01:22:12;98386.41;;;23.79;100.00
3434;BME280;1730;41.932;25.548;2022-08-21T01:24:38;98431.84;;;24.09;100.00
3434;BME280;1730;41.932;25.548;2022-08-21T01:27:04;98170.97;;;22.62;100.00
3434;BME280;1730;41.932;25.548;2022-08-21T01:29:43;98107.78;;;22.35;100.00
3434;BME280;1730;41.932;25.548;2022-08-21T01:32:13;98380.56;;;23.71;100.00
3434;BME280;1730;41.932;25.548;2022-08-21T01:34:42;98425.41;;;23.98;100.00
3434;BME280;1730;41.932;25.548;2022-08-21T01:37:09;98427.12;;;24.04;100.00
3434;BME280;1730;41.932;25.548;2022-08-21T01:39:35;98409.09;;;24.23;100.00
3434;BME280;1730;41.932;25.548;2022-08-21T01:42:02;98425.16;;;24.00;100.00
3434;BME280;1730;41.932;25.548;2022-08-21T01:44:28;98433.63;;;23.93;100.00
3434;BME280;1730;41.932;25.548;2022-08-21T01:46:54;98431.56;;;23.78;100.00
3434;BME280;1730;41.932;25.548;2022-08-21T01:49:20;98431.22;;;23.70;100.00
3434;BME280;1730;41.932;25.548;2022-08-21T01:51:46;98443.59;;;23.67;100.00
3434;BME280;1730;41.932;25.548;2022-08-21T01:54:12;98443.53;;;23.62;100.00
3434;BME280;1730;41.932;25.548;2022-08-21T01:56:40;98432.72;;;23.83;100.00
3434;BME280;1730;41.932;25.548;2022-08-21T01:59:07;98364.75;;;23.34;100.00
3434;BME280;1730;41.932;25.548;2022-08-21T02:01:33;98393.84;;;23.47;100.00
3434;BME280;1730;41.932;25.548;2022-08-21T02:03:58;98395.66;;;23.63;100.00
3434;BME280;1730;41.932;25.548;2022-08-21T02:06:25;98335.03;;;23.05;100.00
3434;BME280;1730;41.932;25.548;2022-08-21T02:08:52;98448.19;;;23.89;100.00
3434;BME280;1730;41.932;25.548;2022-08-21T02:11:17;98442.84;;;24.04;100.00
3434;BME280;1730;41.932;25.548;2022-08-21T02:13:44;98440.13;;;24.09;100.00
3434;BME280;1730;41.932;25.548;2022-08-21T02:16:10;98097.63;;;21.87;100.00
3434;BME280;1730;41.932;25.548;2022-08-21T02:18:36;98456.34;;;23.78;100.00
3434;BME280;1730;41.932;25.548;2022-08-21T02:21:02;98468.84;;;23.59;100.00
3434;BME280;1730;41.932;25.548;2022-08-21T02:23:28;98468.91;;;23.21;100.00
3434;BME280;1730;41.932;25.548;2022-08-21T02:25:56;98490.53;;;23.34;100.00
3434;BME280;1730;41.932;25.548;2022-08-21T02:28:22;98498.09;;;23.44;100.00
3434;BME280;1730;41.932;25.548;2022-08-21T02:30:48;98506.28;;;23.39;100.00
3434;BME280;1730;41.932;25.548;2022-08-21T02:33:15;98509.53;;;23.35;100.00
3434;BME280;1730;41.932;25.548;2022-08-21T02:35:42;98494.44;;;22.95;100.00
3434;BME280;1730;41.932;25.548;2022-08-21T02:38:12;98549.62;;;23.10;100.00
3434;BME280;1730;41.932;25.548;2022-08-21T02:40:40;98570.09;;;22.97;100.00
3434;BME280;1730;41.932;25.548;2022-08-21T02:43:07;98582.47;;;23.00;100.00
3434;BME280;1730;41.932;25.548;2022-08-21T02:45:33;98587.22;;;23.21;100.00
3434;BME280;1730;41.932;25.548;2022-08-21T02:48:03;98560.91;;;22.91;100.00
3434;BME280;1730;41.932;25.548;2022-08-21T02:50:33;98601.13;;;23.14;100.00
3434;BME280;1730;41.932;25.548;2022-08-21T02:52:59;98593.50;;;23.38;100.00
3434;BME280;1730;41.932;25.548;2022-08-21T02:55:27;98572.62;;;23.04;100.00
3434;BME280;1730;41.932;25.548;2022-08-21T02:57:55;98607.44;;;23.31;100.00
3434;BME280;1730;41.932;25.548;2022-08-21T03:00:22;98620.13;;;23.32;100.00
3434;BME280;1730;41.932;25.548;2022-08-21T03:02:49;98618.00;;;23.40;100.00
3434;BME280;1730;41.932;25.548;2022-08-21T03:05:15;98586.22;;;23.10;100.00
3434;BME280;1730;41.932;25.548;2022-08-21T03:07:43;98622.78;;;23.27;100.00
3434;BME280;1730;41.932;25.548;2022-08-21T03:10:09;98461.44;;;22.23;100.00
3434;BME280;1730;41.932;25.548;2022-08-21T03:12:35;98270.25;;;21.17;100.00
3434;BME280;1730;41.932;25.548;2022-08-21T03:15:10;98468.34;;;22.42;100.00
3434;BME280;1730;41.932;25.548;2022-08-21T03:17:36;98625.91;;;23.14;100.00
3434;BME280;1730;41.932;25.548;2022-08-21T03:20:04;98633.34;;;23.35;100.00
3434;BME280;1730;41.932;25.548;2022-08-21T03:22:30;98634.78;;;23.21;100.00
3434;BME280;1730;41.932;25.548;2022-08-21T03:24:55;98654.47;;;23.13;100.00
3434;BME280;1730;41.932;25.548;2022-08-21T03:27:22;98640.91;;;23.23;100.00
3434;BME280;1730;41.932;25.548;2022-08-21T03:29:50;98633.88;;;23.32;100.00
3434;BME280;1730;41.932;25.548;2022-08-21T03:32:16;98499.53;;;22.69;100.00
3434;BME280;1730;41.932;25.548;2022-08-21T03:34:41;98549.84;;;23.03;100.00
3434;BME280;1730;41.932;25.548;2022-08-21T03:37:07;98627.84;;;23.52;100.00
3434;BME280;1730;41.932;25.548;2022-08-21T03:39:33;98592.34;;;23.34;100.00
3434;BME280;1730;41.932;25.548;2022-08-21T03:41:59;98607.88;;;23.62;100.00
3434;BME280;1730;41.932;25.548;2022-08-21T03:44:26;98562.66;;;23.36;100.00
3434;BME280;1730;41.932;25.548;2022-08-21T03:46:53;98588.88;;;23.60;100.00
3434;BME280;1730;41.932;25.548;2022-08-21T03:49:19;98582.78;;;23.80;100.00
3434;BME280;1730;41.932;25.548;2022-08-21T03:51:44;98575.25;;;23.97;100.00
3434;BME280;1730;41.932;25.548;2022-08-21T03:54:10;98464.81;;;23.45;100.00
3434;BME280;1730;41.932;25.548;2022-08-21T03:56:35;98566.66;;;24.15;100.00
3434;BME280;1730;41.932;25.548;2022-08-21T03:59:01;98560.44;;;24.25;100.00
3434;BME280;1730;41.932;25.548;2022-08-21T04:01:28;98578.38;;;24.06;100.00
3434;BME280;1730;41.932;25.548;2022-08-21T04:03:54;98604.66;;;23.92;100.00
3434;BME280;1730;41.932;25.548;2022-08-21T04:06:19;98621.41;;;23.85;100.00
3434;BME280;1730;41.932;25.548;2022-08-21T04:08:45;98665.31;;;23.36;100.00
3434;BME280;1730;41.932;25.548;2022-08-21T04:11:11;98676.81;;;23.17;100.00
3434;BME280;1730;41.932;25.548;2022-08-21T04:13:37;98705.84;;;23.24;100.00
3434;BME280;1730;41.932;25.548;2022-08-21T04:16:03;98730.34;;;23.09;100.00
3434;BME280;1730;41.932;25.548;2022-08-21T04:18:29;98815.53;;;23.04;100.00
3434;BME280;1730;41.932;25.548;2022-08-21T04:20:56;98638.47;;;21.64;100.00
3434;BME280;1730;41.932;25.548;2022-08-21T04:23:23;98877.16;;;23.03;100.00
3434;BME280;1730;41.932;25.548;2022-08-21T04:25:49;98778.66;;;22.09;100.00
3434;BME280;1730;41.932;25.548;2022-08-21T04:28:14;98867.00;;;22.40;100.00
3434;BME280;1730;41.932;25.548;2022-08-21T04:30:41;98941.87;;;22.94;100.00
3434;BME280;1730;41.932;25.548;2022-08-21T04:33:06;99047.91;;;22.67;100.00
3434;BME280;1730;41.932;25.548;2022-08-21T04:35:32;99116.44;;;22.80;100.00
3434;BME280;1730;41.932;25.548;2022-08-21T04:37:58;99101.97;;;22.20;100.00
3434;BME280;1730;41.932;25.548;2022-08-21T04:40:26;99246.59;;;22.44;100.00
3434;BME280;1730;41.932;25.548;2022-08-21T04:42:57;99330.94;;;22.62;100.00
3434;BME280;1730;41.932;25.548;2022-08-21T04:45:33;99339.22;;;22.07;100.00
3434;BME280;1730;41.932;25.548;2022-08-21T04:48:01;99510.75;;;22.11;100.00
3434;BME280;1730;41.932;25.548;2022-08-21T04:50:36;99651.72;;;22.05;100.00
3434;BME280;1730;41.932;25.548;2022-08-21T04:53:09;99818.03;;;21.81;100.00
3434;BME280;1730;41.932;25.548;2022-08-21T04:55:37;100025.25;;;21.72;100.00
3434;BME280;1730;41.932;25.548;2022-08-21T04:58:05;100215.59;;;21.79;100.00
3434;BME280;1730;41.932;25.548;2022-08-21T05:00:32;100354.38;;;21.82;100.00
3434;BME280;1730;41.932;25.548;2022-08-21T05:02:59;100505.56;;;21.74;100.00
3434;BME280;1730;41.932;25.548;2022-08-21T05:05:28;100625.94;;;21.70;100.00
3434;BME280;1730;41.932;25.548;2022-08-21T05:07:59;100682.41;;;21.43;100.00
3434;BME280;1730;41.932;25.548;2022-08-21T05:10:26;100745.75;;;21.27;100.00
3434;BME280;1730;41.932;25.548;2022-08-21T05:12:53;100991.47;;;21.98;100.00
3434;BME280;1730;41.932;25.548;2022-08-21T05:15:19;101060.47;;;21.72;100.00
3434;BME280;1730;41.932;25.548;2022-08-21T05:17:45;101186.41;;;22.14;100.00
3434;BME280;1730;41.932;25.548;2022-08-21T05:20:13;100859.66;;;20.16;100.00
3434;BME280;1730;41.932;25.548;2022-08-21T05:22:40;101086.25;;;21.48;100.00
3434;BME280;1730;41.932;25.548;2022-08-21T05:25:06;101059.12;;;21.23;100.00
3434;BME280;1730;41.932;25.548;2022-08-21T05:27:32;101008.12;;;20.66;100.00
3434;BME280;1730;41.932;25.548;2022-08-21T05:29:58;101226.91;;;21.89;100.00
3434;BME280;1730;41.932;25.548;2022-08-21T05:32:24;101175.50;;;21.44;100.00
3434;BME280;1730;41.932;25.548;2022-08-21T05:34:50;101304.87;;;21.88;100.00
3434;BME280;1730;41.932;25.548;2022-08-21T05:37:16;101223.44;;;21.26;100.00
3434;BME280;1730;41.932;25.548;2022-08-21T05:39:42;101376.63;;;22.01;100.00
3434;BME280;1730;41.932;25.548;2022-08-21T05:42:08;101379.22;;;21.87;100.00
3434;BME280;1730;41.932;25.548;2022-08-21T05:44:33;101406.19;;;22.30;100.00
3434;BME280;1730;41.932;25.548;2022-08-21T05:47:04;101327.22;;;22.16;100.00
3434;BME280;1730;41.932;25.548;2022-08-21T05:49:31;101239.16;;;21.79;100.00
3434;BME280;1730;41.932;25.548;2022-08-21T05:51:56;101316.59;;;22.44;100.00
3434;BME280;1730;41.932;25.548;2022-08-21T05:54:22;101279.31;;;22.41;100.00
3434;BME280;1730;41.932;25.548;2022-08-21T05:56:47;101153.09;;;21.86;100.00
3434;BME280;1730;41.932;25.548;2022-08-21T05:59:13;101238.59;;;22.82;100.00
3434;BME280;1730;41.932;25.548;2022-08-21T06:01:39;100766.59;;;20.76;100.00
3434;BME280;1730;41.932;25.548;2022-08-21T06:04:05;101020.22;;;22.54;100.00
3434;BME280;1730;41.932;25.548;2022-08-21T06:06:31;100991.22;;;22.37;100.00
3434;BME280;1730;41.932;25.548;2022-08-21T06:08:58;101002.38;;;22.50;100.00
3434;BME280;1730;41.932;25.548;2022-08-21T06:11:23;100819.50;;;21.45;100.00
3434;BME280;1730;41.932;25.548;2022-08-21T06:13:49;100941.44;;;22.32;100.00
3434;BME280;1730;41.932;25.548;2022-08-21T06:16:16;100872.19;;;22.07;100.00
3434;BME280;1730;41.932;25.548;2022-08-21T06:18:43;100932.13;;;22.47;100.00
3434;BME280;1730;41.932;25.548;2022-08-21T06:21:09;100914.81;;;22.83;100.00
3434;BME280;1730;41.932;25.548;2022-08-21T06:23:34;100863.00;;;22.86;100.00
3434;BME280;1730;41.932;25.548;2022-08-21T06:26:02;100750.06;;;22.31;100.00
3434;BME280;1730;41.932;25.548;2022-08-21T06:28:28;100788.41;;;22.39;100.00
3434;BME280;1730;41.932;25.548;2022-08-21T06:30:54;100825.88;;;22.61;100.00
3434;BME280;1730;41.932;25.548;2022-08-21T06:33:20;100786.69;;;22.17;100.00
3434;BME280;1730;41.932;25.548;2022-08-21T06:35:45;100876.16;;;22.19;100.00
3434;BME280;1730;41.932;25.548;2022-08-21T06:38:11;100828.12;;;21.71;100.00
3434;BME280;1730;41.932;25.548;2022-08-21T06:40:38;100976.09;;;22.62;100.00
3434;BME280;1730;41.932;25.548;2022-08-21T06:43:10;100959.13;;;22.73;100.00
3434;BME280;1730;41.932;25.548;2022-08-21T06:45:36;100996.28;;;22.99;100.00
3434;BME280;1730;41.932;25.548;2022-08-21T06:48:02;100964.59;;;23.24;100.00
3434;BME280;1730;41.932;25.548;2022-08-21T06:50:28;100901.13;;;22.89;100.00
3434;BME280;1730;41.932;25.548;2022-08-21T06:53:10;100906.28;;;22.78;100.00
3434;BME280;1730;41.932;25.548;2022-08-21T06:55:36;100826.06;;;22.02;100.00
3434;BME280;1730;41.932;25.548;2022-08-21T06:58:03;100960.09;;;22.36;100.00
3434;BME280;1730;41.932;25.548;2022-08-21T07:00:30;101034.03;;;22.31;100.00
3434;BME280;1730;41.932;25.548;2022-08-21T07:02:56;100981.19;;;21.92;100.00
3434;BME280;1730;41.932;25.548;2022-08-21T07:05:25;101075.38;;;22.53;100.00
3434;BME280;1730;41.932;25.548;2022-08-21T07:07:51;101100.59;;;22.56;100.00
3434;BME280;1730;41.932;25.548;2022-08-21T07:10:17;101139.75;;;22.81;100.00
3434;BME280;1730;41.932;25.548;2022-08-21T07:12:42;101135.69;;;22.77;100.00
3434;BME280;1730;41.932;25.548;2022-08-21T07:15:09;101116.47;;;22.54;100.00
3434;BME280;1730;41.932;25.548;2022-08-21T07:17:35;101125.66;;;22.61;100.00
3434;BME280;1730;41.932;25.548;2022-08-21T07:20:01;101136.22;;;22.87;100.00
3434;BME280;1730;41.932;25.548;2022-08-21T07:22:26;101124.94;;;22.30;100.00
3434;BME280;1730;41.932;25.548;2022-08-21T07:24:54;101112.25;;;22.43;100.00
3434;BME280;1730;41.932;25.548;2022-08-21T07:27:20;100695.16;;;20.40;100.00
3434;BME280;1730;41.932;25.548;2022-08-21T07:29:46;100759.47;;;20.90;100.00
3434;BME280;1730;41.932;25.548;2022-08-21T07:32:11;100983.59;;;22.54;100.00
3434;BME280;1730;41.932;25.548;2022-08-21T07:34:37;100939.59;;;22.68;100.00
3434;BME280;1730;41.932;25.548;2022-08-21T07:37:03;100880.94;;;22.82;100.00
3434;BME280;1730;41.932;25.548;2022-08-21T07:39:29;100884.41;;;23.33;100.00
3434;BME280;1730;41.932;25.548;2022-08-21T07:41:55;100841.19;;;23.55;100.00
3434;BME280;1730;41.932;25.548;2022-08-21T07:44:20;100820.53;;;23.72;100.00
3434;BME280;1730;41.932;25.548;2022-08-21T07:46:46;100699.84;;;24.02;100.00
3434;BME280;1730;41.932;25.548;2022-08-21T07:49:11;100598.12;;;24.20;100.00
3434;BME280;1730;41.932;25.548;2022-08-21T07:51:37;100478.28;;;24.23;100.00
3434;BME280;1730;41.932;25.548;2022-08-21T07:54:03;100431.41;;;24.30;100.00
3434;BME280;1730;41.932;25.548;2022-08-21T07:56:30;100323.03;;;24.22;100.00
3434;BME280;1730;41.932;25.548;2022-08-21T07:58:56;100287.66;;;24.57;100.00
3434;BME280;1730;41.932;25.548;2022-08-21T08:01:23;100112.63;;;24.53;100.00
3434;BME280;1730;41.932;25.548;2022-08-21T08:03:49;99986.59;;;24.54;100.00
3434;BME280;1730;41.932;25.548;2022-08-21T08:06:15;99639.06;;;23.10;100.00
3434;BME280;1730;41.932;25.548;2022-08-21T08:08:44;99792.69;;;25.13;100.00
3434;BME280;1730;41.932;25.548;2022-08-21T08:11:10;99801.53;;;25.68;100.00
3434;BME280;1730;41.932;25.548;2022-08-21T08:13:41;99689.75;;;25.99;100.00
3434;BME280;1730;41.932;25.548;2022-08-21T08:16:07;99478.50;;;25.95;100.00
3434;BME280;1730;41.932;25.548;2022-08-21T08:18:33;99461.09;;;26.28;100.00
3434;BME280;1730;41.932;25.548;2022-08-21T08:20:59;99394.62;;;26.39;100.00
3434;BME280;1730;41.932;25.548;2022-08-21T08:23:25;99355.03;;;25.67;100.00
3434;BME280;1730;41.932;25.548;2022-08-21T08:25:51;99271.03;;;25.85;100.00
3434;BME280;1730;41.932;25.548;2022-08-21T08:28:17;99132.94;;;25.30;100.00
3434;BME280;1730;41.932;25.548;2022-08-21T08:30:44;99188.88;;;26.19;100.00
3434;BME280;1730;41.932;25.548;2022-08-21T08:33:09;99131.63;;;26.46;100.00
3434;BME280;1730;41.932;25.548;2022-08-21T08:35:35;99107.63;;;26.83;100.00
3434;BME280;1730;41.932;25.548;2022-08-21T08:38:01;99053.66;;;26.81;100.00
3434;BME280;1730;41.932;25.548;2022-08-21T08:40:41;98978.22;;;26.96;100.00
3434;BME280;1730;41.932;25.548;2022-08-21T08:43:10;98939.13;;;26.87;100.00
3434;BME280;1730;41.932;25.548;2022-08-21T08:45:39;98924.56;;;26.55;100.00
3434;BME280;1730;41.932;25.548;2022-08-21T08:48:08;98931.31;;;26.32;100.00
3434;BME280;1730;41.932;25.548;2022-08-21T08:50:52;98885.72;;;26.39;100.00
3434;BME280;1730;41.932;25.548;2022-08-21T08:53:25;98750.81;;;25.94;100.00
3434;BME280;1730;41.932;25.548;2022-08-21T08:55:53;98777.19;;;26.79;100.00
3434;BME280;1730;41.932;25.548;2022-08-21T09:00:52;98747.91;;;26.99;100.00
3434;BME280;1730;41.932;25.548;2022-08-21T09:03:18;98717.19;;;26.95;100.00
3434;BME280;1730;41.932;25.548;2022-08-21T09:06:16;98664.34;;;26.97;100.00
3434;BME280;1730;41.932;25.548;2022-08-21T09:08:46;98672.56;;;27.72;100.00
3434;BME280;1730;41.932;25.548;2022-08-21T09:11:27;98653.25;;;27.07;100.00
3434;BME280;1730;41.932;25.548;2022-08-21T09:14:26;98576.59;;;26.97;100.00
3434;BME280;1730;41.932;25.548;2022-08-21T09:17:10;98636.53;;;27.77;100.00
3434;BME280;1730;41.932;25.548;2022-08-21T09:20:03;98644.34;;;27.40;100.00
3434;BME280;1730;41.932;25.548;2022-08-21T09:22:43;98619.38;;;27.60;100.00
3434;BME280;1730;41.932;25.548;2022-08-21T09:25:22;98600.88;;;27.25;100.00
3434;BME280;1730;41.932;25.548;2022-08-21T09:27:48;98594.22;;;27.47;100.00
3434;BME280;1730;41.932;25.548;2022-08-21T09:30:15;98589.28;;;27.23;100.00
3434;BME280;1730;41.932;25.548;2022-08-21T09:32:41;98479.78;;;26.31;100.00
3434;BME280;1730;41.932;25.548;2022-08-21T09:37:45;98608.94;;;27.12;100.00
3434;BME280;1730;41.932;25.548;2022-08-21T09:40:45;98546.41;;;27.01;100.00
3434;BME280;1730;41.932;25.548;2022-08-21T09:45:39;98586.25;;;26.79;100.00
3434;BME280;1730;41.932;25.548;2022-08-21T09:48:18;98623.91;;;26.85;100.00
3434;BME280;1730;41.932;25.548;2022-08-21T09:50:45;98629.44;;;26.80;100.00
3434;BME280;1730;41.932;25.548;2022-08-21T09:55:58;98682.47;;;26.47;100.00
3434;BME280;1730;41.932;25.548;2022-08-21T09:58:46;98629.44;;;26.75;100.00
3434;BME280;1730;41.932;25.548;2022-08-21T10:01:15;98579.06;;;26.63;100.00
3434;BME280;1730;41.932;25.548;2022-08-21T10:03:41;98550.56;;;26.78;100.00
3434;BME280;1730;41.932;25.548;2022-08-21T10:06:08;98542.00;;;26.79;100.00
3434;BME280;1730;41.932;25.548;2022-08-21T10:08:38;98532.56;;;27.11;100.00
3434;BME280;1730;41.932;25.548;2022-08-21T10:11:10;98523.09;;;27.17;100.00
3434;BME280;1730;41.932;25.548;2022-08-21T10:14:03;98517.81;;;27.30;100.00
3434;BME280;1730;41.932;25.548;2022-08-21T10:27:33;98428.47;;;28.65;100.00
3434;BME280;1730;41.932;25.548;2022-08-21T10:30:06;98413.75;;;29.41;100.00
3434;BME280;1730;41.932;25.548;2022-08-21T10:32:55;98423.50;;;29.15;100.00
3434;BME280;1730;41.932;25.548;2022-08-21T10:35:29;98404.06;;;29.15;100.00
3434;BME280;1730;41.932;25.548;2022-08-21T10:41:10;98400.75;;;29.74;100.00
3434;BME280;1730;41.932;25.548;2022-08-21T10:43:52;98346.50;;;29.95;100.00
3434;BME280;1730;41.932;25.548;2022-08-21T10:57:54;98343.41;;;31.25;100.00
3434;BME280;1730;41.932;25.548;2022-08-21T11:00:27;98349.53;;;31.13;100.00
3434;BME280;1730;41.932;25.548;2022-08-21T11:03:05;98346.75;;;30.72;100.00
3434;BME280;1730;41.932;25.548;2022-08-21T11:05:57;98346.84;;;30.95;100.00
3434;BME280;1730;41.932;25.548;2022-08-21T11:08:29;98303.00;;;30.18;100.00
3434;BME280;1730;41.932;25.548;2022-08-21T11:11:16;98329.72;;;30.47;100.00
3434;BME280;1730;41.932;25.548;2022-08-21T11:13:50;98323.16;;;30.56;100.00
3434;BME280;1730;41.932;25.548;2022-08-21T11:16:44;98325.41;;;30.81;100.00
3434;BME280;1730;41.932;25.548;2022-08-21T11:19:52;98327.44;;;30.89;100.00
3434;BME280;1730;41.932;25.548;2022-08-21T11:22:43;98198.09;;;29.59;100.00
3434;BME280;1730;41.932;25.548;2022-08-21T11:25:35;98324.75;;;30.43;100.00
3434;BME280;1730;41.932;25.548;2022-08-21T11:28:10;98316.75;;;30.83;100.00
3434;BME280;1730;41.932;25.548;2022-08-21T11:39:16;98128.28;;;30.42;100.00
3434;BME280;1730;41.932;25.548;2022-08-21T11:44:49;98293.22;;;30.89;100.00
3434;BME280;1730;41.932;25.548;2022-08-21T11:50:43;98284.16;;;31.11;100.00
3434;BME280;1730;41.932;25.548;2022-08-21T11:56:18;98267.66;;;30.73;100.00
3434;BME280;1730;41.932;25.548;2022-08-21T11:58:52;98253.81;;;30.82;100.00
3434;BME280;1730;41.932;25.548;2022-08-21T12:01:22;98268.91;;;30.40;100.00
3434;BME280;1730;41.932;25.548;2022-08-21T12:11:59;98258.69;;;30.76;100.00
3434;BME280;1730;41.932;25.548;2022-08-21T12:14:37;98229.00;;;30.17;100.00
3434;BME280;1730;41.932;25.548;2022-08-21T12:17:08;98253.63;;;30.78;100.00
3434;BME280;1730;41.932;25.548;2022-08-21T12:19:34;98252.19;;;30.40;100.00
3434;BME280;1730;41.932;25.548;2022-08-21T12:24:38;98241.91;;;30.40;100.00
3434;BME280;1730;41.932;25.548;2022-08-21T12:29:48;98245.19;;;30.29;100.00
3434;BME280;1730;41.932;25.548;2022-08-21T12:34:52;98229.97;;;31.03;100.00
3434;BME280;1730;41.932;25.548;2022-08-21T12:37:44;98232.69;;;30.67;100.00
3434;BME280;1730;41.932;25.548;2022-08-21T12:40:22;98216.19;;;31.20;100.00
3434;BME280;1730;41.932;25.548;2022-08-21T12:42:53;98225.00;;;31.14;100.00
3434;BME280;1730;41.932;25.548;2022-08-21T12:45:37;98220.62;;;31.44;100.00
3434;BME280;1730;41.932;25.548;2022-08-21T12:53:07;98220.62;;;31.44;100.00
3434;BME280;1730;41.932;25.548;2022-08-21T12:55:34;98218.19;;;31.95;100.00
3434;BME280;1730;41.932;25.548;2022-08-21T12:58:00;98218.03;;;31.47;100.00
3434;BME280;1730;41.932;25.548;2022-08-21T13:00:28;98215.44;;;31.06;100.00
3434;BME280;1730;41.932;25.548;2022-08-21T13:02:56;98224.03;;;30.82;100.00
3434;BME280;1730;41.932;25.548;2022-08-21T13:05:32;98188.94;;;30.18;100.00
3434;BME280;1730;41.932;25.548;2022-08-21T13:07:59;98223.97;;;30.60;100.00
3434;BME280;1730;41.932;25.548;2022-08-21T13:10:31;98149.37;;;30.08;100.00
3434;BME280;1730;41.932;25.548;2022-08-21T13:13:00;98218.69;;;30.59;100.00
3434;BME280;1730;41.932;25.548;2022-08-21T13:15:29;98226.00;;;30.41;100.00
3434;BME280;1730;41.932;25.548;2022-08-21T13:17:55;98224.50;;;30.49;100.00
3434;BME280;1730;41.932;25.548;2022-08-21T13:20:31;98227.34;;;30.16;100.00
3434;BME280;1730;41.932;25.548;2022-08-21T13:23:00;98232.63;;;29.85;100.00
3434;BME280;1730;41.932;25.548;2022-08-21T13:25:30;98193.59;;;29.77;100.00
3434;BME280;1730;41.932;25.548;2022-08-21T13:28:08;98228.25;;;29.98;100.00
3434;BME280;1730;41.932;25.548;2022-08-21T13:30:37;98236.12;;;30.10;100.00
3434;BME280;1730;41.932;25.548;2022-08-21T13:33:05;98239.59;;;29.88;100.00
3434;BME280;1730;41.932;25.548;2022-08-21T13:35:46;98232.81;;;29.62;100.00
3434;BME280;1730;41.932;25.548;2022-08-21T13:38:12;98239.78;;;29.59;100.00
3434;BME280;1730;41.932;25.548;2022-08-21T13:40:46;98157.28;;;29.08;100.00
3434;BME280;1730;41.932;25.548;2022-08-21T13:43:14;98236.97;;;29.45;100.00
3434;BME280;1730;41.932;25.548;2022-08-21T13:45:46;98226.84;;;28.98;100.00
3434;BME280;1730;41.932;25.548;2022-08-21T13:48:12;98215.41;;;29.19;100.00
3434;BME280;1730;41.932;25.548;2022-08-21T13:50:40;97925.53;;;27.29;100.00
3434;BME280;1730;41.932;25.548;2022-08-21T13:53:19;98227.69;;;29.18;100.00
3434;BME280;1730;41.932;25.548;2022-08-21T13:55:46;98241.56;;;28.99;100.00
3434;BME280;1730;41.932;25.548;2022-08-21T13:58:11;98233.16;;;28.85;100.00
3434;BME280;1730;41.932;25.548;2022-08-21T14:00:47;97939.66;;;27.27;100.00
3434;BME280;1730;41.932;25.548;2022-08-21T14:03:26;98232.31;;;28.85;100.00
3434;BME280;1730;41.932;25.548;2022-08-21T14:05:53;98229.25;;;28.86;100.00
3434;BME280;1730;41.932;25.548;2022-08-21T14:08:34;98224.63;;;29.00;100.00
3434;BME280;1730;41.932;25.548;2022-08-21T14:11:04;98041.69;;;27.87;100.00
3434;BME280;1730;41.932;25.548;2022-08-21T14:13:42;98228.00;;;28.55;100.00
3434;BME280;1730;41.932;25.548;2022-08-21T14:16:12;98224.13;;;28.75;100.00
3434;BME280;1730;41.932;25.548;2022-08-21T14:21:34;98202.56;;;28.48;100.00
3434;BME280;1730;41.932;25.548;2022-08-21T14:26:55;98229.56;;;28.85;100.00
3434;BME280;1730;41.932;25.548;2022-08-21T14:29:24;98101.97;;;27.76;100.00